Time;durP1;ratioP1;P1;durP2;ratioP2;P2;SDS_P1;SDS_P2;PMS_P1;PMS_P2;Temp;Humidity;BMP_temperature;BMP_pressure;BME280_temperature;BME280_humidity;BME280_pressure;Samples;Min_cycle;Max_cycle;Signal;HPM_P1;HPM_P2
2021/07/12 00:00:58;;;;;;;15.65;10.38;;;;;;;;;;4881793;29;20041;-85
2021/07/12 00:03:24;;;;;;;11.43;7.75;;;;;;;;;;4898276;29;20029;-85
2021/07/12 00:05:50;;;;;;;14.52;8.50;;;;;;;;;;4881655;29;20051;-84
2021/07/12 00:08:16;;;;;;;11.73;6.43;;;;;;;;;;4881200;29;20070;-85
2021/07/12 00:10:42;;;;;;;16.55;10.52;;;;;;;;;;4898299;29;20470;-85
2021/07/12 00:13:09;;;;;;;12.77;10.30;;;;;;;;;;4898309;29;20040;-86
2021/07/12 00:15:35;;;;;;;13.35;8.60;;;;;;;;;;4881602;29;20080;-86
2021/07/12 00:18:01;;;;;;;13.20;9.65;;;;;;;;;;4898418;29;20035;-85
2021/07/12 00:20:27;;;;;;;17.25;11.18;;;;;;;;;;4881791;29;20033;-85
2021/07/12 00:22:54;;;;;;;13.15;10.23;;;;;;;;;;4898246;29;20020;-85
2021/07/12 00:25:22;;;;;;;13.35;9.32;;;;;;;;;;4896556;29;20111;-86
2021/07/12 00:27:47;;;;;;;15.98;10.13;;;;;;;;;;4898055;29;20080;-86
2021/07/12 00:30:16;;;;;;;13.85;7.97;;;;;;;;;;4882589;29;20056;-85
2021/07/12 00:32:42;;;;;;;11.15;7.13;;;;;;;;;;4901951;29;20025;-85
2021/07/12 00:35:10;;;;;;;13.57;10.35;;;;;;;;;;4885219;29;20033;-85
2021/07/12 00:37:36;;;;;;;14.43;10.52;;;;;;;;;;4901970;29;20112;-84
2021/07/12 00:40:06;;;;;;;12.70;9.27;;;;;;;;;;4901846;29;20051;-85
2021/07/12 00:42:32;;;;;;;13.93;9.35;;;;;;;;;;4884981;29;20434;-85
2021/07/12 00:44:58;;;;;;;12.63;8.88;;;;;;;;;;4901434;29;20058;-84
2021/07/12 00:47:24;;;;;;;15.25;9.13;;;;;;;;;;4884657;29;20401;-85
2021/07/12 00:49:49;;;;;;;12.40;9.98;;;;;;;;;;4884729;29;20045;-85
2021/07/12 00:52:15;;;;;;;12.15;9.68;;;;;;;;;;4901762;29;20056;-85
2021/07/12 00:54:41;;;;;;;11.80;8.13;;;;;;;;;;4885285;29;20396;-84
2021/07/12 00:57:08;;;;;;;13.43;7.75;;;;;;;;;;4902274;29;20393;-84
2021/07/12 00:59:35;;;;;;;14.10;8.82;;;;;;;;;;4885212;29;20028;-85
2021/07/12 01:02:04;;;;;;;14.15;10.57;;;;;;;;;;4901381;29;20028;-85
2021/07/12 01:04:31;;;;;;;13.82;10.15;;;;;;;;;;4901088;29;20044;-85
2021/07/12 01:06:57;;;;;;;15.65;10.57;;;;;;;;;;4900908;29;20036;-85
2021/07/12 01:09:23;;;;;;;14.30;10.23;;;;;;;;;;4900742;29;20427;-85
2021/07/12 01:12:05;;;;;;;16.77;10.43;;;;;;;;;;4900760;29;20107;-85
2021/07/12 01:14:42;;;;;;;13.23;10.20;;;;;;;;;;4884145;29;20024;-85
2021/07/12 01:17:33;;;;;;;12.32;10.63;;;;;;;;;;4900604;29;20043;-85
2021/07/12 01:20:35;;;;;;;15.48;10.48;;;;;;;;;;4900604;29;20024;-85
2021/07/12 01:23:28;;;;;;;17.98;10.60;;;;;;;;;;4883413;29;20036;-84
2021/07/12 01:26:25;;;;;;;14.70;10.02;;;;;;;;;;4883584;29;20511;-86
2021/07/12 01:29:14;;;;;;;12.85;9.93;;;;;;;;;;4883184;29;20044;-84
2021/07/12 01:32:00;;;;;;;13.77;9.98;;;;;;;;;;4900529;29;20033;-84
2021/07/12 01:34:38;;;;;;;15.05;10.30;;;;;;;;;;4900807;29;20496;-85
2021/07/12 01:37:24;;;;;;;12.82;10.05;;;;;;;;;;4900359;29;20056;-85
2021/07/12 01:40:07;;;;;;;14.77;10.60;;;;;;;;;;4900668;29;20087;-85
2021/07/12 01:43:11;;;;;;;13.70;11.35;;;;;;;;;;4899489;29;20024;-85
2021/07/12 01:45:55;;;;;;;10.35;7.25;;;;;;;;;;4883410;29;20397;-85
2021/07/12 01:48:31;;;;;;;13.65;10.70;;;;;;;;;;4899884;29;20107;-86
2021/07/12 01:51:00;;;;;;;11.65;9.00;;;;;;;;;;4883903;29;20041;-86
2021/07/12 01:53:50;;;;;;;14.35;11.02;;;;;;;;;;4899932;29;20473;-85
2021/07/12 01:56:19;;;;;;;12.98;9.20;;;;;;;;;;4900130;29;20028;-85
2021/07/12 01:59:08;;;;;;;14.95;9.38;;;;;;;;;;4900314;29;20430;-86
2021/07/12 02:01:37;;;;;;;15.05;8.82;;;;;;;;;;4899590;29;20123;-85
2021/07/12 02:04:03;;;;;;;13.40;11.85;;;;;;;;;;4883019;29;20404;-85
2021/07/12 02:06:37;;;;;;;14.50;9.07;;;;;;;;;;4900382;29;20025;-85
2021/07/12 02:09:05;;;;;;;13.00;11.30;;;;;;;;;;4899478;29;20039;-85
2021/07/12 02:11:31;;;;;;;12.73;9.27;;;;;;;;;;4883189;29;20120;-86
2021/07/12 02:13:57;;;;;;;12.77;10.00;;;;;;;;;;4898544;29;20051;-85
2021/07/12 02:16:24;;;;;;;12.55;9.95;;;;;;;;;;4882564;29;20048;-85
2021/07/12 02:18:52;;;;;;;11.68;9.70;;;;;;;;;;4882999;29;20452;-86
2021/07/12 02:21:19;;;;;;;11.35;9.70;;;;;;;;;;4883173;29;20465;-86
2021/07/12 02:23:45;;;;;;;9.98;7.82;;;;;;;;;;4898363;29;20040;-86
2021/07/12 02:26:13;;;;;;;11.98;8.25;;;;;;;;;;4882670;29;20084;-86
2021/07/12 02:28:44;;;;;;;14.75;8.82;;;;;;;;;;4899261;29;20056;-85
2021/07/12 02:31:15;;;;;;;13.13;10.68;;;;;;;;;;4898362;29;20044;-86
2021/07/12 02:33:43;;;;;;;11.88;9.75;;;;;;;;;;4899454;29;20064;-86
2021/07/12 02:36:09;;;;;;;12.90;10.23;;;;;;;;;;4899369;29;20025;-86
2021/07/12 02:38:40;;;;;;;11.15;8.18;;;;;;;;;;4883054;29;20028;-87
2021/07/12 02:41:06;;;;;;;11.73;8.40;;;;;;;;;;4883369;29;20036;-85
2021/07/12 02:43:35;;;;;;;10.18;7.43;;;;;;;;;;4898536;29;20036;-86
2021/07/12 02:46:03;;;;;;;11.07;8.80;;;;;;;;;;4899753;29;20029;-85
2021/07/12 02:48:29;;;;;;;13.85;10.75;;;;;;;;;;4899013;29;20051;-85
2021/07/12 02:50:57;;;;;;;11.10;7.03;;;;;;;;;;4898112;29;20393;-87
2021/07/12 02:53:29;;;;;;;12.10;10.57;;;;;;;;;;4882258;29;20025;-85
2021/07/12 02:55:55;;;;;;;13.38;8.93;;;;;;;;;;4882463;29;20029;-85
2021/07/12 02:58:21;;;;;;;13.70;9.05;;;;;;;;;;4899276;29;20107;-85
2021/07/12 03:00:47;;;;;;;12.88;9.10;;;;;;;;;;4882559;29;20033;-86
2021/07/12 03:03:12;;;;;;;12.02;8.15;;;;;;;;;;4899168;29;20033;-85
2021/07/12 03:05:39;;;;;;;12.48;10.10;;;;;;;;;;4899099;29;20478;-86
2021/07/12 03:08:11;;;;;;;14.48;10.18;;;;;;;;;;4899469;29;20032;-85
2021/07/12 03:10:50;;;;;;;10.80;6.97;;;;;;;;;;4898668;29;20120;-85
2021/07/12 03:13:24;;;;;;;9.90;8.55;;;;;;;;;;4882185;29;20028;-86
2021/07/12 03:15:53;;;;;;;15.77;8.18;;;;;;;;;;4899085;29;20025;-85
2021/07/12 03:18:26;;;;;;;12.25;9.18;;;;;;;;;;4899073;29;20041;-85
2021/07/12 03:20:54;;;;;;;17.73;10.55;;;;;;;;;;4899227;29;20029;-86
2021/07/12 03:23:22;;;;;;;14.52;10.18;;;;;;;;;;4898975;29;20532;-85
2021/07/12 03:25:52;;;;;;;12.48;8.63;;;;;;;;;;4898673;29;20525;-85
2021/07/12 03:28:19;;;;;;;12.98;10.07;;;;;;;;;;4882503;29;20139;-86
2021/07/12 03:30:46;;;;;;;14.93;9.15;;;;;;;;;;4898771;29;20477;-85
2021/07/12 03:33:18;;;;;;;12.40;9.15;;;;;;;;;;4899162;29;20032;-86
2021/07/12 03:35:46;;;;;;;14.20;9.90;;;;;;;;;;4882317;29;20031;-86
2021/07/12 03:38:15;;;;;;;12.93;8.35;;;;;;;;;;4898688;29;20477;-85
2021/07/12 03:40:41;;;;;;;12.13;9.55;;;;;;;;;;4898864;29;20192;-86
2021/07/12 03:43:11;;;;;;;12.25;10.23;;;;;;;;;;4898713;29;20039;-86
2021/07/12 03:45:41;;;;;;;12.40;9.98;;;;;;;;;;4898229;29;20039;-84
2021/07/12 03:48:11;;;;;;;14.13;10.88;;;;;;;;;;4898802;29;20035;-84
2021/07/12 03:50:36;;;;;;;15.77;12.75;;;;;;;;;;4896486;29;20025;-87
2021/07/12 03:53:03;;;;;;;15.25;11.90;;;;;;;;;;4881324;29;20035;-87
2021/07/12 03:55:31;;;;;;;18.02;11.45;;;;;;;;;;4881297;29;20107;-86
2021/07/12 03:57:58;;;;;;;16.27;12.52;;;;;;;;;;4897889;29;20091;-88
2021/07/12 04:00:27;;;;;;;16.15;11.57;;;;;;;;;;4898063;29;20095;-86
2021/07/12 04:02:53;;;;;;;16.25;11.77;;;;;;;;;;4898064;29;20035;-87
2021/07/12 04:05:23;;;;;;;16.83;9.88;;;;;;;;;;4882520;29;20181;-85
2021/07/12 04:07:50;;;;;;;16.65;9.27;;;;;;;;;;4901892;29;20029;-85
2021/07/12 04:10:17;;;;;;;13.20;9.55;;;;;;;;;;4900278;29;20037;-85
2021/07/12 04:12:44;;;;;;;13.55;10.43;;;;;;;;;;4901947;29;20020;-86
2021/07/12 04:15:12;;;;;;;15.95;9.40;;;;;;;;;;4884680;29;20055;-84
2021/07/12 04:17:39;;;;;;;13.82;8.40;;;;;;;;;;4901511;29;20047;-86
2021/07/12 04:20:06;;;;;;;13.23;10.93;;;;;;;;;;4900454;29;20437;-85
2021/07/12 04:22:32;;;;;;;13.98;10.10;;;;;;;;;;4901726;29;20056;-86
2021/07/12 04:24:58;;;;;;;18.08;12.07;;;;;;;;;;4884546;29;20115;-85
2021/07/12 04:27:23;;;;;;;16.35;11.43;;;;;;;;;;4901045;29;20152;-86
2021/07/12 04:29:49;;;;;;;15.23;10.70;;;;;;;;;;4900787;29;20040;-85
2021/07/12 04:32:15;;;;;;;15.73;11.07;;;;;;;;;;4901412;29;20037;-86
2021/07/12 04:34:41;;;;;;;18.67;11.57;;;;;;;;;;4901395;29;20029;-84
2021/07/12 04:37:07;;;;;;;13.00;10.48;;;;;;;;;;4900326;29;20029;-83
2021/07/12 04:39:33;;;;;;;15.18;11.02;;;;;;;;;;4901353;29;20112;-85
2021/07/12 04:41:59;;;;;;;15.38;11.45;;;;;;;;;;4901273;29;20120;-84
2021/07/12 04:44:25;;;;;;;15.88;13.32;;;;;;;;;;4901083;29;20024;-85
2021/07/12 04:46:51;;;;;;;14.95;11.55;;;;;;;;;;4900747;29;20036;-84
2021/07/12 04:49:17;;;;;;;15.85;11.73;;;;;;;;;;4900952;29;20029;-85
2021/07/12 04:51:44;;;;;;;17.58;9.98;;;;;;;;;;4899158;29;20051;-84
2021/07/12 04:54:10;;;;;;;15.15;10.88;;;;;;;;;;4900821;29;20029;-88
2021/07/12 04:56:50;;;;;;;14.50;10.95;;;;;;;;;;4899971;29;20088;-86
2021/07/12 04:59:26;;;;;;;16.10;11.18;;;;;;;;;;4915234;29;20119;-87
2021/07/12 05:01:52;;;;;;;15.13;12.90;;;;;;;;;;4884298;29;20381;-87
2021/07/12 05:04:17;;;;;;;21.20;10.43;;;;;;;;;;4900872;29;20024;-87
2021/07/12 05:06:43;;;;;;;34.75;12.65;;;;;;;;;;4899454;29;20485;-86
2021/07/12 05:09:09;;;;;;;33.20;7.78;;;;;;;;;;4899446;29;20213;-85
2021/07/12 05:11:35;;;;;;;18.13;10.73;;;;;;;;;;4923086;29;20111;-84
2021/07/12 05:14:01;;;;;;;15.48;11.15;;;;;;;;;;4912006;29;20028;-84
2021/07/12 05:16:27;;;;;;;12.20;10.32;;;;;;;;;;4908882;29;20024;-85
2021/07/12 05:18:54;;;;;;;12.98;10.00;;;;;;;;;;4879642;29;20036;-86
2021/07/12 05:21:20;;;;;;;13.10;8.77;;;;;;;;;;4904471;29;20036;-86
2021/07/12 05:23:46;;;;;;;12.93;9.68;;;;;;;;;;4901273;29;20033;-85
2021/07/12 05:26:12;;;;;;;12.32;8.52;;;;;;;;;;4900398;29;20433;-86
2021/07/12 05:28:37;;;;;;;11.68;9.90;;;;;;;;;;4900786;29;20104;-86
2021/07/12 05:31:06;;;;;;;14.27;10.48;;;;;;;;;;4900720;29;20048;-85
2021/07/12 05:33:32;;;;;;;16.73;8.27;;;;;;;;;;4900997;29;20039;-85
2021/07/12 05:35:58;;;;;;;12.95;10.45;;;;;;;;;;4900971;29;20406;-85
2021/07/12 05:38:24;;;;;;;12.18;10.20;;;;;;;;;;4900912;29;20028;-85
2021/07/12 05:40:50;;;;;;;12.57;10.18;;;;;;;;;;4900605;29;20036;-84
2021/07/12 05:43:15;;;;;;;10.60;7.50;;;;;;;;;;4900419;29;20029;-87
2021/07/12 05:45:41;;;;;;;12.07;7.45;;;;;;;;;;4899820;29;20040;-85
2021/07/12 05:48:09;;;;;;;15.85;10.07;;;;;;;;;;4900154;29;20052;-85
2021/07/12 05:50:36;;;;;;;13.60;9.65;;;;;;;;;;4900141;29;20033;-84
2021/07/12 05:53:02;;;;;;;12.88;10.77;;;;;;;;;;4899861;29;20508;-87
2021/07/12 05:55:28;;;;;;;12.98;11.00;;;;;;;;;;4900080;29;20429;-88
2021/07/12 05:57:54;;;;;;;11.70;8.32;;;;;;;;;;4900489;29;20381;-85
2021/07/12 06:00:20;;;;;;;10.85;8.27;;;;;;;;;;4900941;29;20085;-84
2021/07/12 06:02:47;;;;;;;13.77;10.65;;;;;;;;;;4901043;29;20029;-89
2021/07/12 06:05:13;;;;;;;13.23;9.65;;;;;;;;;;4901119;29;20029;-89
2021/07/12 06:07:40;;;;;;;13.10;10.43;;;;;;;;;;4900351;29;20020;-86
2021/07/12 06:10:07;;;;;;;13.18;7.63;;;;;;;;;;4899450;29;20056;-85
2021/07/12 06:12:33;;;;;;;15.35;9.88;;;;;;;;;;4883313;29;20036;-85
2021/07/12 06:14:59;;;;;;;13.68;8.00;;;;;;;;;;4898688;29;20029;-89
2021/07/12 06:17:24;;;;;;;13.43;9.60;;;;;;;;;;4900918;29;20033;-86
2021/07/12 06:19:50;;;;;;;13.40;9.77;;;;;;;;;;4901672;29;20040;-85
2021/07/12 06:22:16;;;;;;;12.43;8.55;;;;;;;;;;4883691;29;20388;-85
2021/07/12 06:24:41;;;;;;;14.27;9.85;;;;;;;;;;4902173;29;20028;-85
2021/07/12 06:27:07;;;;;;;12.05;9.80;;;;;;;;;;4901471;29;20124;-85
2021/07/12 06:29:33;;;;;;;13.95;10.70;;;;;;;;;;4899691;29;20036;-85
2021/07/12 06:31:58;;;;;;;12.05;9.90;;;;;;;;;;4882573;29;20481;-85
2021/07/12 06:34:24;;;;;;;13.13;7.22;;;;;;;;;;4885095;29;20084;-85
2021/07/12 06:36:50;;;;;;;11.38;6.82;;;;;;;;;;4902650;29;20035;-86
2021/07/12 06:39:16;;;;;;;13.80;10.38;;;;;;;;;;4900140;29;20060;-84
2021/07/12 06:41:42;;;;;;;10.00;6.85;;;;;;;;;;4900248;29;20370;-85
2021/07/12 06:44:08;;;;;;;10.40;7.88;;;;;;;;;;4899724;29;20088;-86
2021/07/12 06:46:34;;;;;;;11.13;7.57;;;;;;;;;;4882910;29;20428;-87
2021/07/12 06:48:59;;;;;;;12.10;9.10;;;;;;;;;;4902599;29;20036;-87
2021/07/12 06:51:25;;;;;;;12.90;6.65;;;;;;;;;;4898460;29;20024;-84
2021/07/12 06:53:51;;;;;;;8.82;7.57;;;;;;;;;;4900563;29;20088;-89
2021/07/12 06:56:17;;;;;;;12.65;6.22;;;;;;;;;;4900808;29;20032;-89
2021/07/12 06:58:43;;;;;;;14.00;7.90;;;;;;;;;;4898903;29;20097;-88
2021/07/12 07:01:09;;;;;;;11.25;9.38;;;;;;;;;;4900356;29;20024;-87
2021/07/12 07:03:35;;;;;;;9.30;6.85;;;;;;;;;;4899525;29;20040;-85
2021/07/12 07:06:00;;;;;;;11.10;8.48;;;;;;;;;;4899924;29;20549;-88
2021/07/12 07:08:26;;;;;;;9.75;8.55;;;;;;;;;;4899681;29;20029;-91
2021/07/12 07:10:52;;;;;;;13.70;9.18;;;;;;;;;;4900193;29;20068;-86
2021/07/12 07:13:18;;;;;;;9.85;6.15;;;;;;;;;;4899689;29;20024;-93
2021/07/12 07:15:44;;;;;;;11.38;7.68;;;;;;;;;;4900308;29;20029;-91
2021/07/12 07:18:10;;;;;;;10.80;8.93;;;;;;;;;;4899477;29;20333;-89
2021/07/12 07:20:36;;;;;;;8.85;7.75;;;;;;;;;;4901240;29;20028;-88
2021/07/12 07:23:03;;;;;;;8.23;5.15;;;;;;;;;;4900526;29;20027;-88
2021/07/12 07:25:31;;;;;;;10.90;7.13;;;;;;;;;;4900911;29;20033;-89
2021/07/12 07:27:56;;;;;;;9.88;7.53;;;;;;;;;;4900757;29;20393;-96
2021/07/12 07:30:22;;;;;;;12.63;7.78;;;;;;;;;;4898552;29;20024;-85
2021/07/12 07:32:48;;;;;;;9.23;5.22;;;;;;;;;;4898558;29;20039;-85
2021/07/12 07:35:16;;;;;;;10.18;5.30;;;;;;;;;;4899369;29;20064;-86
2021/07/12 07:37:42;;;;;;;9.25;6.03;;;;;;;;;;4898419;29;20488;-85
2021/07/12 07:40:09;;;;;;;12.00;5.88;;;;;;;;;;4898773;29;20028;-86
2021/07/12 07:42:42;;;;;;;10.88;5.70;;;;;;;;;;4899662;29;20040;-86
2021/07/12 07:45:13;;;;;;;9.10;6.32;;;;;;;;;;4903962;29;20444;-90
2021/07/12 07:47:41;;;;;;;12.32;8.18;;;;;;;;;;4903583;29;20115;-86
2021/07/12 07:50:08;;;;;;;10.40;6.38;;;;;;;;;;4902340;29;20112;-86
2021/07/12 07:52:34;;;;;;;7.70;4.70;;;;;;;;;;4898674;29;20087;-87
2021/07/12 07:55:02;;;;;;;6.88;4.82;;;;;;;;;;4899543;29;20496;-88
2021/07/12 07:57:28;;;;;;;9.13;6.82;;;;;;;;;;4897948;29;20032;-86
2021/07/12 07:59:56;;;;;;;8.27;4.70;;;;;;;;;;4900213;29;20169;-86
2021/07/12 08:02:22;;;;;;;7.97;4.47;;;;;;;;;;4900546;29;20378;-86
2021/07/12 08:04:48;;;;;;;10.00;7.70;;;;;;;;;;4883201;29;20036;-86
2021/07/12 08:07:13;;;;;;;9.95;5.57;;;;;;;;;;4901281;29;20033;-90
2021/07/12 08:09:39;;;;;;;8.25;4.78;;;;;;;;;;4902699;29;20378;-90
2021/07/12 08:12:05;;;;;;;8.10;4.82;;;;;;;;;;4900334;29;20044;-92
2021/07/12 08:14:40;;;;;;;7.72;4.65;;;;;;;;;;4904019;29;20029;-86
2021/07/12 08:17:05;;;;;;;8.35;6.75;;;;;;;;;;4895605;29;20043;-87
2021/07/12 08:19:31;;;;;;;7.53;4.10;;;;;;;;;;4914423;29;20115;-93
2021/07/12 08:21:57;;;;;;;8.80;4.78;;;;;;;;;;4899127;29;20028;-88
2021/07/12 08:24:22;;;;;;;11.02;5.45;;;;;;;;;;4898261;29;20079;-88
2021/07/12 08:26:48;;;;;;;6.72;4.45;;;;;;;;;;4898809;29;20072;-88
2021/07/12 08:29:13;;;;;;;9.13;6.93;;;;;;;;;;4897488;29;20392;-90
2021/07/12 08:31:39;;;;;;;9.02;7.22;;;;;;;;;;4884218;29;20507;-90
2021/07/12 08:34:05;;;;;;;12.48;5.78;;;;;;;;;;4898947;29;20033;-89
2021/07/12 08:36:31;;;;;;;9.02;5.28;;;;;;;;;;4900704;29;20033;-86
2021/07/12 08:38:56;;;;;;;8.23;5.07;;;;;;;;;;4885386;29;20039;-91
2021/07/12 08:41:22;;;;;;;7.90;4.75;;;;;;;;;;4900100;29;20033;-90
2021/07/12 08:43:48;;;;;;;9.32;7.90;;;;;;;;;;4900516;29;20029;-89
2021/07/12 08:46:13;;;;;;;12.93;5.90;;;;;;;;;;4883122;29;20035;-91
2021/07/12 08:48:39;;;;;;;8.68;4.35;;;;;;;;;;4898618;29;20096;-92
2021/07/12 08:51:05;;;;;;;9.13;6.38;;;;;;;;;;4883175;29;20040;-94
2021/07/12 08:53:31;;;;;;;9.43;7.38;;;;;;;;;;4889915;29;20140;-87
2021/07/12 08:55:56;;;;;;;9.90;7.72;;;;;;;;;;4888767;29;20028;-90
2021/07/12 08:58:26;;;;;;;8.43;6.82;;;;;;;;;;4906793;29;20039;-88
2021/07/12 09:00:53;;;;;;;7.50;6.20;;;;;;;;;;4909021;29;20031;-90
2021/07/12 09:03:33;;;;;;;9.15;5.38;;;;;;;;;;4908861;29;20029;-89
2021/07/12 09:06:12;;;;;;;9.52;5.13;;;;;;;;;;4891312;29;20096;-90
2021/07/12 09:08:53;;;;;;;10.60;7.53;;;;;;;;;;4909892;29;20028;-90
2021/07/12 09:11:27;;;;;;;8.93;6.70;;;;;;;;;;4902101;29;20028;-87
2021/07/12 09:14:07;;;;;;;9.50;7.28;;;;;;;;;;4884702;29;20029;-86
2021/07/12 09:16:50;;;;;;;9.55;7.68;;;;;;;;;;4902095;29;20025;-87
2021/07/12 09:19:35;;;;;;;8.57;7.22;;;;;;;;;;4882936;29;20033;-90
2021/07/12 09:22:06;;;;;;;9.05;5.95;;;;;;;;;;4885649;29;20033;-85
2021/07/12 09:24:54;;;;;;;7.43;3.72;;;;;;;;;;4886511;29;20029;-93
2021/07/12 09:27:25;;;;;;;7.55;6.43;;;;;;;;;;4886391;29;20052;-91
2021/07/12 09:29:59;;;;;;;9.68;7.10;;;;;;;;;;4877040;29;20060;-87
2021/07/12 09:32:28;;;;;;;9.75;6.50;;;;;;;;;;4887695;29;20505;-86
2021/07/12 09:35:01;;;;;;;7.70;3.00;;;;;;;;;;4885889;29;20066;-85
2021/07/12 09:37:29;;;;;;;6.55;5.60;;;;;;;;;;4882937;29;20053;-84
2021/07/12 09:39:56;;;;;;;10.63;6.50;;;;;;;;;;4885016;29;20036;-84
2021/07/12 09:42:27;;;;;;;7.50;4.50;;;;;;;;;;4886339;29;20546;-84
2021/07/12 09:44:56;;;;;;;8.05;6.30;;;;;;;;;;4907547;29;20369;-84
2021/07/12 09:47:24;;;;;;;7.57;4.95;;;;;;;;;;4920030;29;20031;-83
2021/07/12 09:49:58;;;;;;;8.95;4.90;;;;;;;;;;4919053;29;20040;-84
2021/07/12 09:52:23;;;;;;;30.50;8.82;;;;;;;;;;4919152;29;20494;-84
2021/07/12 09:54:49;;;;;;;438.88;109.10;;;;;;;;;;4918666;29;20075;-84
2021/07/12 09:57:20;;;;;;;9.52;5.60;;;;;;;;;;4901591;29;20028;-83
2021/07/12 10:00:04;;;;;;;8.65;7.50;;;;;;;;;;4886418;29;20032;-84
2021/07/12 10:02:33;;;;;;;8.20;5.15;;;;;;;;;;4917595;29;20028;-84
2021/07/12 10:05:01;;;;;;;7.63;6.10;;;;;;;;;;4918539;29;20096;-83
2021/07/12 10:07:28;;;;;;;7.25;6.32;;;;;;;;;;4918844;29;20544;-85
2021/07/12 10:09:54;;;;;;;8.57;6.57;;;;;;;;;;4917291;29;20036;-85
2021/07/12 10:12:20;;;;;;;7.13;4.95;;;;;;;;;;4901648;29;20084;-85
2021/07/12 10:14:46;;;;;;;9.13;5.10;;;;;;;;;;4901175;29;20433;-85
2021/07/12 10:17:12;;;;;;;10.18;4.72;;;;;;;;;;4917172;29;20024;-84
2021/07/12 10:19:40;;;;;;;12.13;7.80;;;;;;;;;;4901275;29;20504;-84
2021/07/12 10:22:06;;;;;;;8.20;6.75;;;;;;;;;;4918511;29;20031;-85
2021/07/12 10:24:41;;;;;;;7.30;4.75;;;;;;;;;;4918465;29;20028;-85
2021/07/12 10:27:27;;;;;;;8.48;4.28;;;;;;;;;;4918693;29;20515;-85
2021/07/12 10:29:56;;;;;;;8.18;4.43;;;;;;;;;;4917982;29;20064;-87
2021/07/12 10:32:23;;;;;;;7.45;4.82;;;;;;;;;;4917175;29;20481;-87
2021/07/12 10:34:54;;;;;;;7.70;4.07;;;;;;;;;;4917963;29;20052;-85
2021/07/12 10:37:22;;;;;;;9.90;4.72;;;;;;;;;;4918655;29;20032;-86
2021/07/12 10:39:57;;;;;;;8.02;4.20;;;;;;;;;;4918030;29;20047;-87
2021/07/12 10:42:41;;;;;;;;;;;;;;;;;;4918761;29;20477;-87
2021/07/12 10:45:25;;;;;;;7.43;6.63;;;;;;;;;;4901188;29;19915;-86
2021/07/12 10:47:56;;;;;;;8.10;6.55;;;;;;;;;;4901002;29;20095;-86
2021/07/12 10:50:39;;;;;;;6.80;4.43;;;;;;;;;;4900821;29;20039;-85
2021/07/12 10:53:14;;;;;;;7.25;4.88;;;;;;;;;;4917634;29;20035;-85
2021/07/12 10:55:41;;;;;;;7.20;4.60;;;;;;;;;;4917326;29;20031;-87
2021/07/12 10:58:19;;;;;;;11.02;6.90;;;;;;;;;;4901085;29;20035;-86
2021/07/12 11:00:49;;;;;;;8.40;5.53;;;;;;;;;;4917391;29;20023;-87
2021/07/12 11:03:38;;;;;;;7.10;4.85;;;;;;;;;;4900253;29;20480;-86
2021/07/12 11:06:05;;;;;;;7.15;4.28;;;;;;;;;;4917524;29;20118;-89
2021/07/12 11:08:53;;;;;;;7.10;4.40;;;;;;;;;;4918062;29;20020;-89
2021/07/12 11:11:19;;;;;;;10.52;4.45;;;;;;;;;;4915657;29;20076;-88
2021/07/12 11:14:05;;;;;;;8.95;6.32;;;;;;;;;;4882789;29;20033;-91
2021/07/12 11:16:45;;;;;;;11.80;3.20;;;;;;;;;;4898940;29;20025;-89
2021/07/12 11:19:28;;;;;;;7.55;4.70;;;;;;;;;;4899850;29;20021;-88
2021/07/12 11:22:15;;;;;;;8.07;4.97;;;;;;;;;;4900911;29;20027;-86
2021/07/12 11:25:04;;;;;;;8.27;4.30;;;;;;;;;;4900753;29;20036;-90
2021/07/12 11:27:43;;;;;;;9.38;4.03;;;;;;;;;;4899178;29;20052;-90
2021/07/12 11:30:29;;;;;;;6.35;3.75;;;;;;;;;;4900320;29;20036;-92
2021/07/12 11:32:55;;;;;;;9.10;4.65;;;;;;;;;;4906822;23;20033;-90
2021/07/12 11:35:21;;;;;;;8.38;5.75;;;;;;;;;;4898395;29;20041;-89
2021/07/12 11:37:47;;;;;;;7.88;3.80;;;;;;;;;;4920575;23;20088;-88
2021/07/12 11:40:13;;;;;;;5.35;3.55;;;;;;;;;;4919229;29;20470;-86
2021/07/12 11:42:43;;;;;;;6.00;3.53;;;;;;;;;;4918335;29;20028;-90
2021/07/12 11:45:15;;;;;;;;;;;;;;;;;;4901104;29;20032;-88
2021/07/12 11:47:52;;;;;;;7.35;3.38;;;;;;;;;;4899372;29;19923;-89
2021/07/12 11:50:26;;;;;;;5.50;3.70;;;;;;;;;;4916284;29;20114;-87
2021/07/12 11:53:03;;;;;;;6.30;5.40;;;;;;;;;;4899889;29;20452;-87
2021/07/12 11:55:36;;;;;;;5.78;3.90;;;;;;;;;;4916519;29;20020;-87
2021/07/12 11:58:04;;;;;;;8.05;4.88;;;;;;;;;;4916894;29;20340;-89
2021/07/12 12:00:41;;;;;;;5.40;3.33;;;;;;;;;;4900014;29;20024;-89
2021/07/12 12:03:13;;;;;;;6.90;3.60;;;;;;;;;;4900619;29;20110;-87
2021/07/12 12:05:46;;;;;;;6.13;2.95;;;;;;;;;;4900668;29;20028;-90
2021/07/12 12:08:17;;;;;;;7.82;5.07;;;;;;;;;;4900145;29;20032;-86
2021/07/12 12:10:43;;;;;;;6.82;5.28;;;;;;;;;;4898878;29;20445;-87
2021/07/12 12:13:17;;;;;;;8.57;2.78;;;;;;;;;;4899569;29;20076;-88
2021/07/12 12:15:46;;;;;;;4.72;2.70;;;;;;;;;;4916079;29;20426;-87
2021/07/12 12:18:14;;;;;;;5.43;2.72;;;;;;;;;;4918228;29;20051;-88
2021/07/12 12:20:43;;;;;;;4.82;2.42;;;;;;;;;;4900455;29;20035;-89
2021/07/12 12:23:16;;;;;;;5.80;3.30;;;;;;;;;;4900873;29;20028;-92
2021/07/12 12:25:54;;;;;;;5.75;2.33;;;;;;;;;;4909514;29;20122;-87
2021/07/12 12:28:40;;;;;;;4.57;2.85;;;;;;;;;;4941233;29;20031;-89
2021/07/12 12:31:13;;;;;;;5.18;2.58;;;;;;;;;;4922671;29;20055;-91
2021/07/12 12:33:58;;;;;;;5.40;3.10;;;;;;;;;;4903602;29;20035;-92
2021/07/12 12:36:32;;;;;;;4.57;2.13;;;;;;;;;;4920096;29;20044;-92
2021/07/12 12:39:08;;;;;;;8.10;2.80;;;;;;;;;;4921387;29;20023;-90
2021/07/12 12:41:36;;;;;;;5.35;4.35;;;;;;;;;;4920187;29;20107;-90
2021/07/12 12:44:10;;;;;;;5.00;4.50;;;;;;;;;;4904865;29;20456;-93
2021/07/12 12:46:53;;;;;;;4.90;2.25;;;;;;;;;;4903985;29;20028;-89
2021/07/12 12:49:23;;;;;;;4.65;3.05;;;;;;;;;;4920073;29;20393;-85
2021/07/12 12:52:07;;;;;;;4.00;2.10;;;;;;;;;;4902638;29;20039;-88
2021/07/12 12:54:39;;;;;;;4.75;2.70;;;;;;;;;;4919936;29;20484;-88
2021/07/12 12:57:06;;;;;;;7.13;4.82;;;;;;;;;;4919748;29;20477;-90
2021/07/12 12:59:34;;;;;;;7.28;6.57;;;;;;;;;;4905424;29;20066;-93
2021/07/12 13:02:10;;;;;;;5.65;2.63;;;;;;;;;;4907878;29;20563;-89
2021/07/12 13:04:55;;;;;;;5.85;5.05;;;;;;;;;;4911496;29;20103;-90
2021/07/12 13:07:26;;;;;;;7.07;4.95;;;;;;;;;;4915319;23;20076;-90
2021/07/12 13:10:06;;;;;;;6.45;3.17;;;;;;;;;;4905868;29;20130;-91
2021/07/12 13:12:42;;;;;;;7.05;3.22;;;;;;;;;;4922969;29;20036;-86
2021/07/12 13:15:09;;;;;;;7.10;5.10;;;;;;;;;;4903089;29;20024;-90
2021/07/12 13:17:37;;;;;;;5.20;2.67;;;;;;;;;;4902950;29;20028;-92
2021/07/12 13:20:13;;;;;;;5.22;2.88;;;;;;;;;;4902163;29;20028;-88
2021/07/12 13:22:50;;;;;;;7.65;5.72;;;;;;;;;;4902304;29;20115;-85
2021/07/12 13:25:20;;;;;;;7.38;2.78;;;;;;;;;;4919199;29;20032;-86
2021/07/12 13:27:55;;;;;;;6.80;4.97;;;;;;;;;;4919120;29;20020;-87
2021/07/12 13:30:24;;;;;;;7.25;4.00;;;;;;;;;;4922107;29;20099;-87
2021/07/12 13:32:50;;;;;;;6.43;5.53;;;;;;;;;;4903539;29;20063;-87
2021/07/12 13:35:19;;;;;;;6.80;4.90;;;;;;;;;;4903305;29;20127;-87
2021/07/12 13:37:46;;;;;;;6.20;3.03;;;;;;;;;;4920006;29;20035;-87
2021/07/12 13:40:13;;;;;;;5.57;2.80;;;;;;;;;;4903210;29;20028;-87
2021/07/12 13:42:39;;;;;;;5.28;2.85;;;;;;;;;;4902514;29;20023;-86
2021/07/12 13:45:06;;;;;;;8.07;5.22;;;;;;;;;;4919846;29;20024;-88
2021/07/12 13:47:31;;;;;;;6.13;5.53;;;;;;;;;;4920028;29;20035;-87
2021/07/12 13:49:57;;;;;;;8.63;5.88;;;;;;;;;;4919589;29;20036;-87
2021/07/12 13:52:23;;;;;;;4.90;3.15;;;;;;;;;;4921955;29;20036;-87
2021/07/12 13:54:50;;;;;;;5.78;3.13;;;;;;;;;;4922597;29;20107;-87
2021/07/12 13:57:16;;;;;;;5.55;3.25;;;;;;;;;;4902928;29;20028;-87
2021/07/12 13:59:42;;;;;;;5.82;3.58;;;;;;;;;;4920610;29;20112;-87
2021/07/12 14:02:12;;;;;;;9.15;5.80;;;;;;;;;;4920034;29;20027;-86
2021/07/12 14:04:39;;;;;;;9.23;4.13;;;;;;;;;;4919001;29;20096;-88
2021/07/12 14:07:05;;;;;;;9.57;4.97;;;;;;;;;;4920560;29;20135;-87
2021/07/12 14:09:31;;;;;;;7.55;2.92;;;;;;;;;;4920441;29;20032;-89
2021/07/12 14:11:58;;;;;;;7.18;2.65;;;;;;;;;;4920045;29;20028;-85
2021/07/12 14:14:25;;;;;;;7.53;5.00;;;;;;;;;;4918032;29;20405;-85
2021/07/12 14:16:50;;;;;;;6.30;3.95;;;;;;;;;;4917364;29;20518;-85
2021/07/12 14:19:16;;;;;;;7.63;6.07;;;;;;;;;;4916626;29;20062;-85
2021/07/12 14:21:42;;;;;;;7.88;6.07;;;;;;;;;;4918023;29;20472;-86
2021/07/12 14:24:07;;;;;;;7.55;6.28;;;;;;;;;;4917923;29;20035;-86
2021/07/12 14:26:34;;;;;;;10.07;7.05;;;;;;;;;;4917044;29;20183;-86
2021/07/12 14:29:00;;;;;;;7.80;5.75;;;;;;;;;;4917695;29;20064;-84
2021/07/12 14:31:26;;;;;;;8.27;5.60;;;;;;;;;;4918182;29;20057;-84
2021/07/12 14:33:52;;;;;;;8.05;5.65;;;;;;;;;;4917922;29;20035;-84
2021/07/12 14:36:17;;;;;;;9.23;5.43;;;;;;;;;;4917927;29;20032;-85
2021/07/12 14:38:44;;;;;;;8.07;4.28;;;;;;;;;;5152487;23;20068;-86
2021/07/12 14:41:10;;;;;;;6.43;4.10;;;;;;;;;;4919712;29;20039;-92
2021/07/12 14:43:37;;;;;;;8.70;6.10;;;;;;;;;;4920212;29;20035;-88
2021/07/12 14:46:03;;;;;;;8.00;3.78;;;;;;;;;;4919959;29;20024;-89
2021/07/12 14:48:29;;;;;;;7.50;5.30;;;;;;;;;;4919333;29;20029;-91